createdAt,value
2018-12-14T00:02:11.664Z,87.38
2018-12-14T00:04:44.258Z,87.12
2018-12-14T00:07:16.230Z,87.84
2018-12-14T00:09:46.833Z,87.92
2018-12-14T00:12:16.936Z,87.95
2018-12-14T00:14:47.249Z,87.93
2018-12-14T00:17:18.096Z,87.81
2018-12-14T00:19:48.147Z,87.66
2018-12-14T00:22:18.358Z,88.29
2018-12-14T00:24:48.410Z,88.32
2018-12-14T00:27:18.908Z,88.12
2018-12-14T00:32:32.865Z,87.94
2018-12-14T00:35:03.253Z,88.36
2018-12-14T00:37:34.472Z,88.33
2018-12-14T00:40:05.892Z,89.08
2018-12-14T00:42:36.169Z,89.16
2018-12-14T00:45:06.456Z,89.58
2018-12-14T00:47:36.561Z,89.54
2018-12-14T00:50:07.852Z,89.59
2018-12-14T00:52:38.622Z,89.67
2018-12-14T00:55:08.907Z,89.88
2018-12-14T00:57:39.327Z,89.85
2018-12-14T01:00:10.700Z,89.89
2018-12-14T01:05:18.439Z,90.56
2018-12-14T01:07:48.448Z,90.18
2018-12-14T01:10:18.558Z,90.34
2018-12-14T01:12:48.925Z,89.53
2018-12-14T01:15:18.988Z,89.13
2018-12-14T01:17:49.116Z,88.58
2018-12-14T01:20:19.960Z,88.39
2018-12-14T01:22:50.150Z,88.32
2018-12-14T01:25:20.505Z,88.30
2018-12-14T01:27:51.061Z,87.78
2018-12-14T01:30:21.115Z,87.91
2018-12-14T01:32:53.021Z,87.69
2018-12-14T01:35:23.256Z,88.03
2018-12-14T01:37:53.840Z,87.83
2018-12-14T01:40:24.058Z,87.91
2018-12-14T01:42:54.482Z,87.74
2018-12-14T01:45:24.960Z,87.87
2018-12-14T01:47:55.804Z,88.03
2018-12-14T01:50:26.035Z,87.95
2018-12-14T01:52:56.225Z,87.96
2018-12-14T01:55:26.486Z,88.31
2018-12-14T01:57:56.680Z,88.06
2018-12-14T02:00:27.126Z,88.47
2018-12-14T02:02:57.292Z,88.23
2018-12-14T02:05:27.444Z,88.39
2018-12-14T02:07:57.811Z,88.37
2018-12-14T02:10:28.010Z,88.46
2018-12-14T02:12:58.807Z,88.31
2018-12-14T02:15:29.764Z,88.72
2018-12-14T02:17:59.993Z,88.88
2018-12-14T02:20:30.878Z,88.20
2018-12-14T02:23:01.252Z,87.94
2018-12-14T02:25:31.623Z,87.53
2018-12-14T02:28:02.205Z,87.56
2018-12-14T02:30:41.578Z,87.43
2018-12-14T02:33:12.890Z,87.12
2018-12-14T02:35:43.234Z,87.24
2018-12-14T02:38:13.424Z,86.64
2018-12-14T02:40:44.170Z,86.54
2018-12-14T02:43:14.434Z,86.49
2018-12-14T02:45:45.398Z,86.52
2018-12-14T02:48:15.907Z,86.19
2018-12-14T02:50:46.232Z,86.44
2018-12-14T02:53:16.289Z,86.45
2018-12-14T02:55:47.533Z,85.84
2018-12-14T02:58:17.552Z,86.21
2018-12-14T03:00:48.002Z,85.79
2018-12-14T03:03:18.379Z,85.84
2018-12-14T03:05:49.332Z,85.44
2018-12-14T03:08:20.273Z,85.27
2018-12-14T03:10:51.001Z,85.10
2018-12-14T03:13:21.397Z,84.76
2018-12-14T03:15:51.615Z,85.14
2018-12-14T03:18:21.811Z,85.03
2018-12-14T03:20:51.887Z,84.78
2018-12-14T03:23:22.418Z,85.04
2018-12-14T03:25:53.816Z,85.22
2018-12-14T03:28:23.883Z,84.62
2018-12-14T03:30:54.129Z,84.95
2018-12-14T03:33:24.866Z,85.09
2018-12-14T03:35:55.033Z,85.01
2018-12-14T03:38:25.412Z,85.43
2018-12-14T03:40:55.635Z,85.05
2018-12-14T03:43:25.931Z,85.08
2018-12-14T03:45:56.521Z,85.45
2018-12-14T03:48:27.080Z,85.66
2018-12-14T03:50:58.065Z,85.43
2018-12-14T03:53:28.420Z,85.16
2018-12-14T03:55:58.848Z,84.87
2018-12-14T03:58:29.841Z,84.73
2018-12-14T04:01:00.165Z,84.48
2018-12-14T04:03:30.325Z,84.52
2018-12-14T04:06:00.997Z,84.61
2018-12-14T04:08:31.618Z,84.82
2018-12-14T04:11:01.793Z,85.13
2018-12-14T04:13:32.040Z,85.51
2018-12-14T04:16:02.468Z,85.65
2018-12-14T04:18:33.128Z,85.21
2018-12-14T04:21:04.960Z,85.69
2018-12-14T04:23:35.891Z,85.30
2018-12-14T04:26:06.166Z,85.31
2018-12-14T04:28:37.703Z,85.47
2018-12-14T04:31:08.336Z,85.50
2018-12-14T04:33:39.356Z,85.69
2018-12-14T04:36:09.485Z,86.25
2018-12-14T04:38:41.824Z,85.62
2018-12-14T04:41:12.204Z,86.10
2018-12-14T04:43:42.610Z,86.55
2018-12-14T04:46:13.022Z,86.38
2018-12-14T04:48:43.176Z,86.37
2018-12-14T04:51:17.683Z,85.72
2018-12-14T04:53:48.108Z,85.97
2018-12-14T04:56:18.224Z,85.95
2018-12-14T04:58:48.494Z,85.89
2018-12-14T05:01:18.480Z,85.95
2018-12-14T05:03:48.470Z,86.31
2018-12-14T05:06:18.713Z,85.99
2018-12-14T05:08:48.709Z,86.09
2018-12-14T05:11:19.885Z,86.03
2018-12-14T05:13:50.312Z,86.30
2018-12-14T05:16:20.650Z,86.09
2018-12-14T05:18:51.533Z,86.39
2018-12-14T05:21:21.828Z,85.45
2018-12-14T05:23:51.861Z,85.55
2018-12-14T05:28:59.211Z,85.70
2018-12-14T05:31:29.300Z,85.60
2018-12-14T05:33:59.974Z,85.86
2018-12-14T05:36:30.706Z,86.16
2018-12-14T05:39:00.921Z,86.06
2018-12-14T05:44:13.913Z,86.63
2018-12-14T05:46:44.139Z,86.33
2018-12-14T05:49:14.632Z,86.52
2018-12-14T05:51:44.898Z,86.08
2018-12-14T05:54:15.273Z,86.12
2018-12-14T05:56:45.764Z,86.42
2018-12-14T05:59:15.760Z,86.30
2018-12-14T06:01:50.874Z,85.82
2018-12-14T06:04:22.245Z,86.09
2018-12-14T06:06:57.391Z,85.66
2018-12-14T06:09:28.223Z,85.73
2018-12-14T06:14:42.600Z,86.24
2018-12-14T06:17:13.476Z,86.31
2018-12-14T06:19:44.035Z,86.33
2018-12-14T06:22:23.131Z,86.05
2018-12-14T06:24:55.011Z,86.06
2018-12-14T06:27:26.733Z,86.06
2018-12-14T06:29:58.436Z,86.35
2018-12-14T06:32:29.768Z,86.21
2018-12-14T06:35:03.057Z,86.01
2018-12-14T06:37:33.108Z,85.72
2018-12-14T06:40:05.434Z,86.10
2018-12-14T06:42:35.763Z,85.99
2018-12-14T06:45:07.035Z,86.16
2018-12-14T06:47:37.340Z,85.41
2018-12-14T06:50:07.526Z,85.21
2018-12-14T06:52:38.526Z,85.13
2018-12-14T06:55:08.572Z,84.91
2018-12-14T06:57:38.804Z,85.12
2018-12-14T07:00:09.231Z,85.88
2018-12-14T07:02:39.283Z,85.55
2018-12-14T07:05:09.553Z,85.10
2018-12-14T07:07:39.546Z,84.90
2018-12-14T07:10:09.880Z,85.35
2018-12-14T07:12:40.771Z,85.29
2018-12-14T07:15:11.141Z,85.25
2018-12-14T07:20:24.913Z,84.52
2018-12-14T07:22:55.041Z,84.92
2018-12-14T07:25:25.174Z,84.43
2018-12-14T07:27:55.289Z,84.27
2018-12-14T07:30:25.460Z,84.37
2018-12-14T07:32:55.998Z,84.92
2018-12-14T07:35:26.411Z,85.08
2018-12-14T07:37:56.567Z,84.75
2018-12-14T07:40:27.150Z,84.90
2018-12-14T07:43:00.254Z,84.83
2018-12-14T07:45:31.458Z,84.70
2018-12-14T07:48:01.617Z,84.57
2018-12-14T07:50:31.778Z,84.28
2018-12-14T07:53:01.918Z,84.37
2018-12-14T07:55:31.971Z,83.88
2018-12-14T07:58:01.936Z,84.13
2018-12-14T08:00:32.299Z,84.15
2018-12-14T08:03:02.280Z,84.03
2018-12-14T08:05:32.397Z,84.12
2018-12-14T08:08:02.599Z,84.81
2018-12-14T08:10:32.736Z,84.63
2018-12-14T08:13:03.191Z,84.00
2018-12-14T08:15:33.442Z,83.90
2018-12-14T08:18:03.676Z,84.18
2018-12-14T08:23:23.027Z,84.54
2018-12-14T08:25:53.005Z,83.99
2018-12-14T08:28:23.613Z,83.99
2018-12-14T08:30:54.299Z,84.16
2018-12-14T08:33:24.544Z,84.06
2018-12-14T08:35:54.809Z,84.41
2018-12-14T08:38:25.814Z,84.77
2018-12-14T08:40:56.076Z,84.63
2018-12-14T08:43:26.565Z,84.97
2018-12-14T08:45:57.364Z,84.87
2018-12-14T08:48:27.919Z,84.41
2018-12-14T08:50:58.050Z,84.80
2018-12-14T08:53:28.496Z,84.72
2018-12-14T08:55:58.647Z,84.67
2018-12-14T08:58:28.978Z,84.85
2018-12-14T09:00:59.116Z,84.67
2018-12-14T09:03:29.728Z,84.53
2018-12-14T09:06:00.706Z,84.91
2018-12-14T09:08:30.885Z,84.42
2018-12-14T09:11:01.094Z,84.62
2018-12-14T09:13:31.345Z,85.05
2018-12-14T09:16:02.031Z,84.66
2018-12-14T09:18:32.189Z,83.90
2018-12-14T09:21:02.564Z,83.77
2018-12-14T09:23:32.717Z,83.83
2018-12-14T09:26:02.914Z,83.22
2018-12-14T09:28:34.285Z,82.90
2018-12-14T09:31:04.404Z,83.14
2018-12-14T09:33:34.803Z,82.55
2018-12-14T09:36:05.799Z,82.81
2018-12-14T09:38:35.846Z,82.36
2018-12-14T09:41:06.415Z,82.35
2018-12-14T09:43:36.391Z,82.59
2018-12-14T09:46:06.500Z,82.66
2018-12-14T09:48:37.076Z,82.65
2018-12-14T09:51:12.313Z,81.69
2018-12-14T09:53:40.517Z,81.19
2018-12-14T09:56:10.743Z,80.99
2018-12-14T09:58:41.638Z,81.18
2018-12-14T10:01:11.742Z,81.36
2018-12-14T10:03:42.599Z,81.25
2018-12-14T10:06:15.841Z,81.05
2018-12-14T10:08:45.227Z,81.36
2018-12-14T10:11:15.593Z,81.65
2018-12-14T10:13:45.845Z,81.19
2018-12-14T10:16:16.631Z,81.35
2018-12-14T10:18:47.192Z,81.20
2018-12-14T10:21:17.352Z,81.15
2018-12-14T10:23:47.294Z,80.92
2018-12-14T10:26:17.526Z,80.69
2018-12-14T10:28:48.093Z,79.46
2018-12-14T10:31:18.339Z,79.48
2018-12-14T10:33:48.940Z,79.64
2018-12-14T10:36:19.358Z,79.77
2018-12-14T10:38:49.929Z,79.38
2018-12-14T10:41:20.928Z,79.66
2018-12-14T10:43:51.843Z,78.68
2018-12-14T10:46:21.945Z,79.06
2018-12-14T10:48:52.096Z,78.53
2018-12-14T10:51:23.220Z,78.78
2018-12-14T10:53:57.440Z,77.92
2018-12-14T10:56:27.620Z,77.02
2018-12-14T10:58:58.115Z,78.03
2018-12-14T11:01:33.661Z,78.65
2018-12-14T11:04:04.581Z,79.00
2018-12-14T11:06:34.606Z,78.69
2018-12-14T11:09:06.784Z,78.43
2018-12-14T11:11:37.964Z,79.13
2018-12-14T11:14:13.773Z,79.66
2018-12-14T11:16:40.762Z,79.69
2018-12-14T11:19:11.081Z,80.25
2018-12-14T11:21:41.551Z,79.90
2018-12-14T11:24:11.781Z,80.08
2018-12-14T11:26:42.049Z,80.21
2018-12-14T11:29:12.248Z,80.19
2018-12-14T11:31:42.856Z,80.32
2018-12-14T11:34:13.359Z,80.43
2018-12-14T11:36:43.749Z,80.39
2018-12-14T11:39:14.158Z,80.34
2018-12-14T11:41:44.525Z,80.23
2018-12-14T11:44:20.655Z,79.79
2018-12-14T11:46:47.554Z,80.06
2018-12-14T11:49:17.672Z,80.40
2018-12-14T11:51:48.798Z,80.12
2018-12-14T11:54:18.914Z,79.77
2018-12-14T11:56:49.325Z,79.78
2018-12-14T11:59:19.331Z,80.02
2018-12-14T12:04:26.561Z,79.88
2018-12-14T12:06:56.534Z,79.18
2018-12-14T12:09:26.501Z,79.02
2018-12-14T12:11:56.867Z,79.74
2018-12-14T12:14:27.518Z,79.74
2018-12-14T12:16:57.574Z,79.45
2018-12-14T12:19:28.030Z,79.50
2018-12-14T12:21:58.148Z,79.10
2018-12-14T12:24:29.105Z,79.42
2018-12-14T12:26:59.649Z,79.33
2018-12-14T12:29:30.131Z,79.48
2018-12-14T12:32:00.124Z,79.46
2018-12-14T12:34:30.254Z,79.25
2018-12-14T12:37:00.503Z,79.01
2018-12-14T12:39:31.393Z,78.89
2018-12-14T12:42:02.199Z,79.24
2018-12-14T12:44:33.865Z,79.17
2018-12-14T12:47:04.224Z,79.27
2018-12-14T12:49:35.276Z,79.03
2018-12-14T12:52:05.537Z,79.21
2018-12-14T12:54:35.634Z,79.19
2018-12-14T12:57:05.767Z,78.72
2018-12-14T12:59:42.301Z,78.73
2018-12-14T13:02:12.709Z,79.07
2018-12-14T13:07:19.771Z,78.46
2018-12-14T13:09:49.794Z,78.67
2018-12-14T13:12:19.980Z,79.03
2018-12-14T13:14:50.156Z,79.19
2018-12-14T13:17:20.383Z,78.69
2018-12-14T13:19:50.472Z,78.59
2018-12-14T13:22:20.721Z,78.27
2018-12-14T13:24:50.945Z,78.17
2018-12-14T13:27:20.911Z,78.48
2018-12-14T13:29:50.946Z,78.61
2018-12-14T13:32:21.264Z,78.37
2018-12-14T13:34:51.314Z,78.57
2018-12-14T13:37:21.651Z,78.25
2018-12-14T13:39:51.800Z,78.18
2018-12-14T13:42:21.805Z,78.68
2018-12-14T13:44:58.303Z,78.93
2018-12-14T13:47:28.477Z,79.09
2018-12-14T13:49:58.467Z,79.34
2018-12-14T13:52:29.241Z,78.84
2018-12-14T13:54:59.470Z,78.90
2018-12-14T13:57:29.481Z,79.30
2018-12-14T13:59:59.483Z,79.00
2018-12-14T14:02:29.812Z,79.24
2018-12-14T14:04:59.703Z,79.41
2018-12-14T14:07:29.868Z,79.46
2018-12-14T14:10:00.405Z,79.52
2018-12-14T14:12:31.606Z,79.66
2018-12-14T14:15:01.891Z,79.67
2018-12-14T14:17:31.842Z,79.77
2018-12-14T14:20:02.317Z,80.29
2018-12-14T14:22:32.768Z,80.49
2018-12-14T14:25:03.160Z,80.71
2018-12-14T14:27:34.386Z,80.85
2018-12-14T14:30:06.743Z,80.76
2018-12-14T14:32:37.887Z,81.19
2018-12-14T14:35:09.446Z,81.23
2018-12-14T14:37:40.065Z,81.48
2018-12-14T14:40:11.575Z,81.82
2018-12-14T14:42:42.277Z,81.87
2018-12-14T14:45:15.439Z,82.11
2018-12-14T14:47:46.530Z,82.78
2018-12-14T14:50:18.464Z,82.58
2018-12-14T14:52:49.968Z,83.12
2018-12-14T14:55:20.952Z,83.04
2018-12-14T14:57:53.402Z,83.72
2018-12-14T15:00:24.132Z,83.81
2018-12-14T15:02:55.579Z,83.94
2018-12-14T15:08:02.230Z,84.16
2018-12-14T15:10:32.807Z,84.65
2018-12-14T15:13:04.226Z,84.52
2018-12-14T15:15:35.312Z,84.75
2018-12-14T15:18:05.608Z,85.07
2018-12-14T15:23:13.847Z,85.14
2018-12-14T15:25:44.012Z,85.25
2018-12-14T15:28:15.429Z,85.57
2018-12-14T15:30:45.995Z,85.48
2018-12-14T15:33:19.527Z,86.20
2018-12-14T15:36:03.114Z,86.07
2018-12-14T15:38:35.946Z,85.99
2018-12-14T15:43:47.301Z,85.94
2018-12-14T15:46:19.047Z,85.90
2018-12-14T15:48:50.201Z,86.16
2018-12-14T15:51:21.641Z,86.63
2018-12-14T15:53:53.073Z,86.65
2018-12-14T15:56:23.930Z,86.26
2018-12-14T15:58:55.813Z,86.45
2018-12-14T16:04:02.857Z,86.58
2018-12-14T16:06:33.850Z,87.10
2018-12-14T16:09:05.750Z,87.08
2018-12-14T16:11:38.382Z,87.36
2018-12-14T16:14:09.281Z,87.37
2018-12-14T16:16:42.173Z,87.41
2018-12-14T16:19:13.598Z,87.71
2018-12-14T16:24:25.208Z,87.53
2018-12-14T16:26:56.427Z,88.14
2018-12-14T16:29:27.731Z,88.02
2018-12-14T16:31:57.938Z,88.00
2018-12-14T16:34:28.702Z,88.41
2018-12-14T16:36:59.413Z,88.42
2018-12-14T16:39:30.274Z,88.61
2018-12-14T16:42:00.848Z,88.34
2018-12-14T16:44:31.887Z,88.81
2018-12-14T16:47:02.207Z,88.99
2018-12-14T16:49:34.650Z,89.03
2018-12-14T16:52:06.698Z,88.68
2018-12-14T16:54:38.333Z,88.96
2018-12-14T16:57:09.029Z,88.79
2018-12-14T16:59:40.712Z,88.89
2018-12-14T17:02:10.738Z,88.71
2018-12-14T17:04:42.465Z,89.03
2018-12-14T17:07:14.575Z,89.00
2018-12-14T17:09:46.264Z,88.66
2018-12-14T17:12:18.415Z,89.00
2018-12-14T17:14:48.571Z,88.79
2018-12-14T17:17:19.385Z,88.80
2018-12-14T17:19:50.973Z,88.76
2018-12-14T17:22:21.096Z,88.86
2018-12-14T17:24:51.644Z,89.36
2018-12-14T17:27:21.818Z,89.18
2018-12-14T17:29:51.893Z,89.32
2018-12-14T17:32:22.218Z,89.34
2018-12-14T17:34:52.407Z,89.29
2018-12-14T17:37:22.330Z,89.30
2018-12-14T17:42:28.774Z,89.34
2018-12-14T17:44:58.754Z,89.17
2018-12-14T17:47:28.760Z,89.54
2018-12-14T17:49:58.925Z,89.26
2018-12-14T17:52:29.144Z,89.33
2018-12-14T17:54:59.576Z,89.42
2018-12-14T17:57:30.276Z,89.34
2018-12-14T18:00:00.561Z,89.36
2018-12-14T18:02:30.608Z,89.17
2018-12-14T18:05:00.586Z,89.04
2018-12-14T18:07:30.861Z,89.34
2018-12-14T18:10:00.845Z,89.36
2018-12-14T18:15:07.877Z,88.88
2018-12-14T18:17:37.834Z,88.91
2018-12-14T18:20:08.366Z,89.15
2018-12-14T18:22:38.629Z,89.03
2018-12-14T18:25:09.075Z,88.72
2018-12-14T18:27:39.701Z,88.88
2018-12-14T18:32:46.777Z,88.97
2018-12-14T18:35:16.715Z,89.33
2018-12-14T18:37:46.944Z,89.46
2018-12-14T18:42:54.839Z,88.83
2018-12-14T18:45:25.035Z,88.60
2018-12-14T18:47:55.142Z,88.82
2018-12-14T18:50:25.237Z,88.29
2018-12-14T18:52:56.696Z,88.17
2018-12-14T18:55:28.050Z,88.09
2018-12-14T18:57:59.834Z,87.78
2018-12-14T19:00:30.193Z,87.74
2018-12-14T19:03:01.611Z,87.94
2018-12-14T19:05:33.571Z,87.97
2018-12-14T19:08:05.520Z,88.08
2018-12-14T19:10:35.773Z,88.04
2018-12-14T19:13:06.265Z,87.91
2018-12-14T19:15:36.622Z,88.12
2018-12-14T19:18:07.059Z,87.93
2018-12-14T19:20:37.175Z,88.20
2018-12-14T19:23:07.752Z,88.38
2018-12-14T19:25:37.781Z,88.18
2018-12-14T19:28:08.430Z,88.18
2018-12-14T19:30:38.960Z,88.15
2018-12-14T19:33:10.205Z,87.73
2018-12-14T19:35:40.167Z,87.99
2018-12-14T19:38:10.488Z,87.92
2018-12-14T19:40:45.072Z,87.92
2018-12-14T19:43:15.314Z,88.00
2018-12-14T19:45:45.692Z,87.81
2018-12-14T19:48:16.493Z,88.11
2018-12-14T19:50:47.124Z,87.67
2018-12-14T19:53:17.486Z,87.89
2018-12-14T19:55:47.801Z,87.82
2018-12-14T19:58:18.226Z,87.32
2018-12-14T20:00:48.381Z,87.03
2018-12-14T20:03:18.727Z,87.35
2018-12-14T20:05:48.884Z,87.09
2018-12-14T20:08:19.512Z,87.09
2018-12-14T20:10:49.605Z,87.37
2018-12-14T20:13:19.960Z,87.81
2018-12-14T20:15:50.191Z,87.66
2018-12-14T20:18:20.477Z,87.62
2018-12-14T20:20:51.005Z,87.81
2018-12-14T20:23:21.414Z,87.46
2018-12-14T20:28:29.188Z,88.03
2018-12-14T20:30:59.114Z,87.73
2018-12-14T20:33:29.244Z,87.72
2018-12-14T20:35:59.266Z,87.56
2018-12-14T20:38:29.467Z,87.63
2018-12-14T20:40:59.971Z,88.03
2018-12-14T20:46:06.819Z,88.06
2018-12-14T20:48:37.873Z,87.94
2018-12-14T20:51:08.278Z,87.67
2018-12-14T20:53:38.711Z,87.71
2018-12-14T20:56:08.809Z,87.94
2018-12-14T20:58:39.879Z,87.77
2018-12-14T21:01:09.895Z,87.93
2018-12-14T21:03:40.066Z,88.01
2018-12-14T21:06:11.745Z,87.64
2018-12-14T21:08:41.930Z,87.62
2018-12-14T21:11:12.343Z,87.46
2018-12-14T21:13:42.629Z,87.56
2018-12-14T21:16:13.607Z,87.52
2018-12-14T21:18:44.171Z,87.37
2018-12-14T21:21:14.558Z,87.67
2018-12-14T21:23:44.750Z,87.56
2018-12-14T21:26:15.243Z,87.88
2018-12-14T21:28:45.438Z,88.01
2018-12-14T21:31:15.961Z,87.63
2018-12-14T21:33:46.475Z,87.72
2018-12-14T21:36:17.991Z,87.75
2018-12-14T21:38:49.086Z,88.16
2018-12-14T21:41:20.192Z,88.13
2018-12-14T21:43:50.813Z,88.38
2018-12-14T21:46:21.260Z,88.00
2018-12-14T21:48:51.584Z,88.29
2018-12-14T21:51:22.200Z,88.17
2018-12-14T21:53:52.648Z,88.19
2018-12-14T21:56:23.100Z,88.48
2018-12-14T21:58:54.062Z,88.42
2018-12-14T22:04:07.380Z,88.26
2018-12-14T22:06:38.305Z,88.50
2018-12-14T22:09:09.790Z,88.36
2018-12-14T22:11:40.527Z,88.42
2018-12-14T22:14:11.409Z,88.02
2018-12-14T22:16:41.681Z,87.84
2018-12-14T22:19:12.079Z,87.95
2018-12-14T22:21:46.374Z,88.00
2018-12-14T22:24:17.043Z,88.28
2018-12-14T22:26:47.590Z,88.15
2018-12-14T22:29:18.288Z,87.99
2018-12-14T22:31:49.927Z,88.19
2018-12-14T22:34:20.087Z,88.34
2018-12-14T22:36:50.772Z,88.58
2018-12-14T22:41:58.102Z,88.11
2018-12-14T22:44:28.698Z,87.58
2018-12-14T22:46:58.902Z,88.00
2018-12-14T22:49:34.284Z,88.11
2018-12-14T22:54:41.159Z,88.05
2018-12-14T22:57:11.394Z,87.65
2018-12-14T22:59:42.779Z,87.77
2018-12-14T23:02:13.195Z,87.97
2018-12-14T23:04:43.703Z,87.91
2018-12-14T23:07:13.846Z,87.96
2018-12-14T23:09:44.002Z,87.74
2018-12-14T23:12:14.101Z,87.57
2018-12-14T23:14:44.819Z,88.10
2018-12-14T23:17:15.183Z,88.06
2018-12-14T23:19:45.755Z,87.84
2018-12-14T23:22:16.334Z,87.71
2018-12-14T23:24:46.606Z,87.78
2018-12-14T23:27:17.550Z,87.93
2018-12-14T23:29:48.101Z,88.23
2018-12-14T23:32:18.365Z,88.00
2018-12-14T23:34:49.030Z,87.97
2018-12-14T23:37:19.479Z,88.42
2018-12-14T23:39:49.672Z,88.27
2018-12-14T23:44:56.980Z,88.32
2018-12-14T23:47:27.146Z,88.21
2018-12-14T23:49:58.012Z,87.84
2018-12-14T23:52:28.645Z,87.83
2018-12-14T23:54:59.253Z,88.19
2018-12-14T23:57:29.361Z,88.25
2018-12-14T23:59:59.666Z,88.00
